createdAt,value
2018-05-14T00:03:32.125Z,99.90
2018-05-14T00:07:25.289Z,99.90
2018-05-14T00:11:18.419Z,99.90
2018-05-14T00:15:11.573Z,99.90
2018-05-14T00:19:04.724Z,99.90
2018-05-14T00:22:58.692Z,99.90
2018-05-14T00:26:51.908Z,99.90
2018-05-14T00:30:45.049Z,99.90
2018-05-14T00:34:38.237Z,99.90
2018-05-14T00:38:31.720Z,99.90
2018-05-14T00:42:24.963Z,99.90
2018-05-14T00:46:18.909Z,99.90
2018-05-14T00:50:12.257Z,99.90
2018-05-14T00:54:05.453Z,99.90
2018-05-14T00:57:59.336Z,99.90
2018-05-14T01:01:53.832Z,99.90
2018-05-14T01:05:47.011Z,99.90
2018-05-14T01:09:40.236Z,99.90
2018-05-14T01:13:33.379Z,99.90
2018-05-14T01:17:26.746Z,99.90
2018-05-14T01:21:20.004Z,99.90
2018-05-14T01:25:14.147Z,99.90
2018-05-14T01:29:08.047Z,99.90
2018-05-14T01:33:01.238Z,99.90
2018-05-14T01:36:54.479Z,99.90
2018-05-14T01:40:47.730Z,99.90
2018-05-14T01:44:40.834Z,99.90
2018-05-14T01:48:34.035Z,99.90
2018-05-14T01:52:27.242Z,99.90
2018-05-14T01:56:20.892Z,99.90
2018-05-14T02:00:14.030Z,99.90
2018-05-14T02:04:07.242Z,99.90
2018-05-14T02:08:00.624Z,99.90
2018-05-14T02:11:54.971Z,99.90
2018-05-14T02:15:48.228Z,99.90
2018-05-14T02:19:41.480Z,99.90
2018-05-14T02:23:34.768Z,99.90
2018-05-14T02:27:27.983Z,99.90
2018-05-14T02:31:21.102Z,99.90
2018-05-14T02:35:14.254Z,99.90
2018-05-14T02:39:07.499Z,99.90
2018-05-14T02:43:00.644Z,99.90
2018-05-14T02:46:53.815Z,99.90
2018-05-14T02:50:47.032Z,99.90
2018-05-14T02:54:43.204Z,99.90
2018-05-14T02:58:36.397Z,99.90
2018-05-14T03:02:29.571Z,99.90
2018-05-14T03:06:22.836Z,99.90
2018-05-14T03:10:15.951Z,99.90
2018-05-14T03:14:09.625Z,99.90
2018-05-14T03:18:02.828Z,99.90
2018-05-14T03:21:56.546Z,99.90
2018-05-14T03:25:49.847Z,99.90
2018-05-14T03:29:43.117Z,99.90
2018-05-14T03:33:37.012Z,99.90
2018-05-14T03:37:30.158Z,99.90
2018-05-14T03:41:23.327Z,99.90
2018-05-14T03:45:16.546Z,99.90
2018-05-14T03:49:09.805Z,99.90
2018-05-14T03:53:03.003Z,99.90
2018-05-14T03:56:56.349Z,99.90
2018-05-14T04:01:01.442Z,99.90
2018-05-14T04:05:06.462Z,99.90
2018-05-14T04:08:59.643Z,99.90
2018-05-14T04:12:53.614Z,99.90
2018-05-14T04:16:46.739Z,99.90
2018-05-14T04:20:39.871Z,99.90
2018-05-14T04:24:33.032Z,99.90
2018-05-14T04:28:26.978Z,99.90
2018-05-14T04:32:20.430Z,99.90
2018-05-14T04:36:15.720Z,99.90
2018-05-14T04:40:08.943Z,99.90
2018-05-14T04:44:02.844Z,99.90
2018-05-14T04:47:57.190Z,99.90
2018-05-14T04:51:50.351Z,99.90
2018-05-14T04:55:43.569Z,99.90
2018-05-14T04:59:36.935Z,99.90
2018-05-14T05:03:30.864Z,99.90
2018-05-14T05:07:24.509Z,99.90
2018-05-14T05:11:17.875Z,99.90
2018-05-14T05:15:11.530Z,99.90
2018-05-14T05:19:04.884Z,99.90
2018-05-14T05:22:58.457Z,99.90
2018-05-14T05:26:53.397Z,99.90
2018-05-14T05:30:46.866Z,99.90
2018-05-14T05:34:40.256Z,99.90
2018-05-14T05:38:33.512Z,99.90
2018-05-14T05:42:28.559Z,99.90
2018-05-14T05:46:21.921Z,99.90
2018-05-14T05:50:15.239Z,99.90
2018-05-14T05:54:10.426Z,99.90
2018-05-14T05:58:04.000Z,99.90
2018-05-14T06:01:57.301Z,99.90
2018-05-14T06:05:49.864Z,99.90
2018-05-14T06:09:43.183Z,99.90
2018-05-14T06:13:36.439Z,99.90
2018-05-14T06:17:29.665Z,99.90
2018-05-14T06:21:22.943Z,99.90
2018-05-14T06:25:16.223Z,99.90
2018-05-14T06:29:09.490Z,99.90
2018-05-14T06:33:02.656Z,99.90
2018-05-14T06:36:56.731Z,99.20
2018-05-14T06:40:49.866Z,99.20
2018-05-14T06:44:43.959Z,98.50
2018-05-14T06:48:37.320Z,98.50
2018-05-14T06:52:31.731Z,97.70
2018-05-14T06:56:26.423Z,97.70
2018-05-14T07:00:19.738Z,96.80
2018-05-14T07:04:13.038Z,96.20
2018-05-14T07:08:06.274Z,96.10
2018-05-14T07:12:00.033Z,94.70
2018-05-14T07:15:53.549Z,94.10
2018-05-14T07:19:46.700Z,93.30
2018-05-14T07:23:39.961Z,92.80
2018-05-14T07:27:33.292Z,92.60
2018-05-14T07:31:26.617Z,92.30
2018-05-14T07:35:19.908Z,91.90
2018-05-14T07:39:13.199Z,92.00
2018-05-14T07:43:06.340Z,92.60
2018-05-14T07:47:01.157Z,91.80
2018-05-14T07:50:54.441Z,91.80
2018-05-14T07:54:47.771Z,91.30
2018-05-14T07:58:41.132Z,90.50
2018-05-14T08:02:34.342Z,89.60
2018-05-14T08:06:27.605Z,90.60
2018-05-14T08:10:20.824Z,90.60
2018-05-14T08:14:14.192Z,90.90
2018-05-14T08:18:09.385Z,91.30
2018-05-14T08:22:07.695Z,91.40
2018-05-14T08:26:00.902Z,90.90
2018-05-14T08:29:54.167Z,89.40
2018-05-14T08:33:47.397Z,87.90
2018-05-14T08:37:40.692Z,87.50
2018-05-14T08:41:34.247Z,87.80
2018-05-14T08:45:28.035Z,87.90
2018-05-14T08:49:21.285Z,88.10
2018-05-14T08:53:14.627Z,88.60
2018-05-14T08:57:08.661Z,88.20
2018-05-14T09:01:02.099Z,88.90
2018-05-14T09:04:56.561Z,90.00
2018-05-14T09:08:50.073Z,89.40
2018-05-14T09:12:44.600Z,89.70
2018-05-14T09:16:38.090Z,89.70
2018-05-14T09:20:31.272Z,89.70
2018-05-14T09:24:24.970Z,90.00
2018-05-14T09:28:18.293Z,88.30
2018-05-14T09:32:12.312Z,88.40
2018-05-14T09:36:05.533Z,88.40
2018-05-14T09:40:00.369Z,85.60
2018-05-14T09:43:53.711Z,85.60
2018-05-14T09:47:47.750Z,86.80
2018-05-14T09:51:41.030Z,86.70
2018-05-14T09:55:34.281Z,87.20
2018-05-14T09:59:28.378Z,86.40
2018-05-14T10:03:23.849Z,83.80
2018-05-14T10:07:16.891Z,84.20
2018-05-14T10:11:11.693Z,85.20
2018-05-14T10:15:07.923Z,83.50
2018-05-14T10:19:04.362Z,83.40
2018-05-14T10:22:57.728Z,82.60
2018-05-14T10:26:53.372Z,80.30
2018-05-14T10:30:47.767Z,80.20
2018-05-14T10:34:41.176Z,80.00
2018-05-14T10:38:34.689Z,77.10
2018-05-14T10:42:28.696Z,77.10
2018-05-14T10:46:23.794Z,77.20
2018-05-14T10:50:19.536Z,77.10
2018-05-14T10:54:15.044Z,77.00
2018-05-14T10:58:08.519Z,77.80
2018-05-14T11:06:01.963Z,75.60
2018-05-14T11:09:56.284Z,75.40
2018-05-14T11:17:50.469Z,71.80
2018-05-14T11:21:51.544Z,73.00
2018-05-14T11:25:48.418Z,70.00
2018-05-14T11:29:43.478Z,69.40
2018-05-14T11:33:37.493Z,68.70
2018-05-14T11:37:31.440Z,69.10
2018-05-14T11:41:24.720Z,67.20
2018-05-14T11:45:17.983Z,66.60
2018-05-14T11:49:11.266Z,66.90
2018-05-14T11:53:04.538Z,65.90
2018-05-14T11:56:57.789Z,65.40
2018-05-14T12:00:51.058Z,65.20
2018-05-14T12:04:45.252Z,64.50
2018-05-14T12:08:38.523Z,64.50
2018-05-14T12:12:33.993Z,63.50
2018-05-14T12:16:28.797Z,63.20
2018-05-14T12:20:22.603Z,63.20
2018-05-14T12:24:15.919Z,62.80
2018-05-14T12:28:09.208Z,63.00
2018-05-14T12:32:02.494Z,62.10
2018-05-14T12:35:56.531Z,60.60
2018-05-14T12:39:49.771Z,60.60
2018-05-14T12:43:42.973Z,61.00
2018-05-14T12:47:36.361Z,60.50
2018-05-14T12:51:30.416Z,58.90
2018-05-14T12:55:23.729Z,58.90
2018-05-14T12:59:17.853Z,58.30
2018-05-14T13:03:11.055Z,58.30
2018-05-14T13:07:04.477Z,57.80
2018-05-14T13:10:57.634Z,57.80
2018-05-14T13:14:50.882Z,56.20
2018-05-14T13:18:45.261Z,56.50
2018-05-14T13:22:38.780Z,56.00
2018-05-14T13:26:32.153Z,53.40
2018-05-14T13:30:25.423Z,52.80
2018-05-14T13:34:20.012Z,52.60
2018-05-14T13:38:13.959Z,52.10
2018-05-14T13:42:08.056Z,51.30
2018-05-14T13:46:01.460Z,51.30
2018-05-14T13:49:54.788Z,49.20
2018-05-14T13:53:48.124Z,48.70
2018-05-14T13:57:42.138Z,48.50
2018-05-14T14:01:35.452Z,48.30
2018-05-14T14:05:28.726Z,47.90
2018-05-14T14:09:23.158Z,45.90
2018-05-14T14:13:16.458Z,46.40
2018-05-14T14:17:10.165Z,44.30
2018-05-14T14:21:03.475Z,44.30
2018-05-14T14:24:57.583Z,45.80
2018-05-14T14:28:52.065Z,45.20
2018-05-14T14:36:39.894Z,45.00
2018-05-14T14:40:34.556Z,44.90
2018-05-14T14:44:28.188Z,43.60
2018-05-14T14:48:21.684Z,43.20
2018-05-14T14:52:14.798Z,45.90
2018-05-14T14:56:07.577Z,45.50
2018-05-14T15:00:01.096Z,43.60
2018-05-14T15:07:53.620Z,42.30
2018-05-14T15:11:47.297Z,42.50
2018-05-14T15:15:41.067Z,42.50
2018-05-14T15:19:34.714Z,40.80
2018-05-14T15:23:28.114Z,41.10
2018-05-14T15:27:27.649Z,38.40
2018-05-14T15:31:21.189Z,38.30
2018-05-14T15:35:16.120Z,38.30
2018-05-14T15:39:11.506Z,39.30
2018-05-14T15:43:05.074Z,37.30
2018-05-14T15:46:57.861Z,37.90
2018-05-14T15:50:50.704Z,37.00
2018-05-14T15:54:44.368Z,37.30
2018-05-14T15:58:37.155Z,37.80
2018-05-14T16:02:31.367Z,38.50
2018-05-14T16:06:24.954Z,38.60
2018-05-14T16:10:18.477Z,38.50
2018-05-14T16:14:12.061Z,38.00
2018-05-14T16:18:04.856Z,37.90
2018-05-14T16:22:06.093Z,38.10
2018-05-14T16:25:58.832Z,38.30
2018-05-14T16:29:52.515Z,38.30
2018-05-14T16:33:47.010Z,38.30
2018-05-14T16:37:41.110Z,38.00
2018-05-14T16:41:34.741Z,38.10
2018-05-14T16:45:35.059Z,38.10
2018-05-14T16:49:28.710Z,37.40
2018-05-14T16:53:22.025Z,37.30
2018-05-14T16:57:15.598Z,37.40
2018-05-14T17:01:08.431Z,37.40
2018-05-14T17:05:01.147Z,37.60
2018-05-14T17:08:53.852Z,38.50
2018-05-14T17:12:46.652Z,38.70
2018-05-14T17:16:39.465Z,38.90
2018-05-14T17:20:32.202Z,38.90
2018-05-14T17:24:24.956Z,38.90
2018-05-14T17:28:17.749Z,37.80
2018-05-14T17:32:10.393Z,37.10
2018-05-14T17:36:03.986Z,37.60
2018-05-14T17:39:56.814Z,37.90
2018-05-14T17:43:49.647Z,38.10
2018-05-14T17:47:43.281Z,38.90
2018-05-14T17:51:36.013Z,39.00
2018-05-14T17:55:28.794Z,38.70
2018-05-14T17:59:22.293Z,39.20
2018-05-14T18:03:15.451Z,39.10
2018-05-14T18:07:08.295Z,39.50
2018-05-14T18:11:02.031Z,39.40
2018-05-14T18:14:57.248Z,39.40
2018-05-14T18:18:50.761Z,39.70
2018-05-14T18:22:46.748Z,40.10
2018-05-14T18:26:45.422Z,40.80
2018-05-14T18:30:39.597Z,41.20
2018-05-14T18:34:39.321Z,41.70
2018-05-14T18:38:32.110Z,42.50
2018-05-14T18:42:24.841Z,43.00
2018-05-14T18:46:19.123Z,44.30
2018-05-14T18:50:12.551Z,44.20
2018-05-14T18:54:09.138Z,45.70
2018-05-14T18:58:03.034Z,46.20
2018-05-14T19:01:58.214Z,46.60
2018-05-14T19:05:51.849Z,48.30
2018-05-14T19:09:44.656Z,48.20
2018-05-14T19:13:38.661Z,49.90
2018-05-14T19:17:38.844Z,49.90
2018-05-14T19:21:32.008Z,50.50
2018-05-14T19:25:25.799Z,51.10
2018-05-14T19:29:24.371Z,51.70
2018-05-14T19:33:22.815Z,51.90
2018-05-14T19:37:16.788Z,52.30
2018-05-14T19:41:09.645Z,52.10
2018-05-14T19:47:48.962Z,53.10
2018-05-14T20:01:29.224Z,52.90
2018-05-14T20:05:22.730Z,54.60
2018-05-14T20:09:15.645Z,54.90
2018-05-14T20:13:09.336Z,56.80
2018-05-14T20:17:02.154Z,56.70
2018-05-14T20:20:55.006Z,56.50
2018-05-14T20:24:47.990Z,57.90
2018-05-14T20:28:42.365Z,58.30
2018-05-14T20:32:35.452Z,58.70
2018-05-14T20:36:28.648Z,59.50
2018-05-14T20:40:21.655Z,59.40
2018-05-14T20:44:15.430Z,60.70
2018-05-14T20:48:08.262Z,60.70
2018-05-14T20:52:01.566Z,60.40
2018-05-14T20:55:54.516Z,61.10
2018-05-14T20:59:48.535Z,62.90
2018-05-14T21:03:41.385Z,62.50
2018-05-14T21:07:34.331Z,61.90
2018-05-14T21:11:28.044Z,59.70
2018-05-14T21:15:21.073Z,59.70
2018-05-14T21:19:14.124Z,58.70
2018-05-14T21:23:07.202Z,58.00
2018-05-14T21:27:00.162Z,58.10
2018-05-14T21:30:54.036Z,57.90
2018-05-14T21:34:46.962Z,57.90
2018-05-14T21:38:41.085Z,57.70
2018-05-14T21:42:34.452Z,57.20
2018-05-14T21:46:28.467Z,57.20
2018-05-14T21:50:21.436Z,57.20
2018-05-14T21:54:14.399Z,57.30
2018-05-14T21:58:11.073Z,56.80
2018-05-14T22:02:04.649Z,57.00
2018-05-14T22:05:58.654Z,57.10
2018-05-14T22:09:51.724Z,57.20
2018-05-14T22:13:44.744Z,56.90
2018-05-14T22:17:37.879Z,56.80
2018-05-14T22:21:30.776Z,57.00
2018-05-14T22:25:23.809Z,57.80
2018-05-14T22:29:16.878Z,59.00
2018-05-14T22:33:09.802Z,59.80
2018-05-14T22:37:02.809Z,60.80
2018-05-14T22:40:58.647Z,60.20
2018-05-14T22:44:52.096Z,60.20
2018-05-14T22:48:45.098Z,61.20
2018-05-14T22:52:37.952Z,62.00
2018-05-14T22:56:31.595Z,62.70
2018-05-14T23:00:24.579Z,63.30
2018-05-14T23:04:17.504Z,63.50
2018-05-14T23:08:11.204Z,65.40
2018-05-14T23:12:04.129Z,65.40
2018-05-14T23:15:57.924Z,66.40
2018-05-14T23:19:51.357Z,66.40
2018-05-14T23:23:44.421Z,67.10
2018-05-14T23:27:37.403Z,68.40
2018-05-14T23:31:30.334Z,69.70
2018-05-14T23:35:23.641Z,69.40
2018-05-14T23:39:16.588Z,68.80
2018-05-14T23:43:11.003Z,67.70
2018-05-14T23:47:03.896Z,67.60
2018-05-14T23:50:56.767Z,67.20
2018-05-14T23:54:49.759Z,66.80
2018-05-14T23:58:42.623Z,67.30
